Time;durP1;ratioP1;P1;durP2;ratioP2;P2;SDS_P1;SDS_P2;PMS_P1;PMS_P2;Temp;Humidity;BMP_temperature;BMP_pressure;BME280_temperature;BME280_humidity;BME280_pressure;Samples;Min_cycle;Max_cycle;Signal;HPM_P1;HPM_P2
2022/02/21 00:00:58;;;;;;;12.50;8.47;;;;;;;6.32;68.36;100073.78;1486498;87;22373;-79
2022/02/21 00:03:25;;;;;;;14.67;8.57;;;;;;;6.27;68.60;100066.79;1481651;87;21397;-78
2022/02/21 00:05:52;;;;;;;13.67;8.47;;;;;;;6.24;69.12;100074.94;1482350;86;21366;-77
2022/02/21 00:08:19;;;;;;;11.37;9.10;;;;;;;6.14;70.23;100075.33;1480922;86;22109;-78
2022/02/21 00:10:45;;;;;;;11.57;8.30;;;;;;;6.14;70.23;100075.33;1489714;86;21628;-79
2022/02/21 00:13:12;;;;;;;14.47;8.87;;;;;;;6.04;71.13;100063.45;1466745;89;21491;-77
2022/02/21 00:15:38;;;;;;;12.33;9.97;;;;;;;6.04;71.13;100069.88;1495321;87;21411;-78
2022/02/21 00:18:05;;;;;;;14.00;10.17;;;;;;;6.06;71.65;100081.70;1490450;87;21572;-78
2022/02/21 00:20:31;;;;;;;14.33;9.80;;;;;;;6.02;72.16;100075.88;1479056;87;21582;-77
2022/02/21 00:22:58;;;;;;;17.07;10.57;;;;;;;6.02;71.70;100079.81;1491176;87;22549;-77
2022/02/21 00:25:25;;;;;;;15.63;9.70;;;;;;;5.96;73.48;100066.36;1464074;88;22122;-77
2022/02/21 00:27:52;;;;;;;13.53;10.10;;;;;;;5.96;73.48;100066.36;1490761;87;21448;-78
2022/02/21 00:30:19;;;;;;;15.53;11.60;;;;;;;5.94;74.43;100072.22;1468584;89;22167;-78
2022/02/21 00:32:45;;;;;;;13.73;10.40;;;;;;;5.94;74.43;100072.22;1460259;88;21459;-78
2022/02/21 00:35:11;;;;;;;20.23;11.77;;;;;;;5.89;74.97;100060.24;1456388;88;23085;-78
2022/02/21 00:37:37;;;;;;;12.50;10.17;;;;;;;5.92;74.66;100038.14;1485099;88;22141;-78
2022/02/21 00:40:05;;;;;;;15.63;11.33;;;;;;;5.89;75.46;100043.17;1484457;88;22953;-78
2022/02/21 00:42:31;;;;;;;12.63;10.33;;;;;;;5.91;75.64;100024.67;1483210;88;22190;-79
2022/02/21 00:44:59;;;;;;;14.20;12.27;;;;;;;5.88;75.49;100023.13;1490521;88;22197;-79
2022/02/21 00:47:27;;;;;;;12.77;10.37;;;;;;;5.86;76.14;100035.55;1481735;88;22371;-78
2022/02/21 00:49:55;;;;;;;15.37;12.07;;;;;;;5.83;76.55;100033.17;1481071;88;22078;-77
2022/02/21 00:52:23;;;;;;;13.80;10.87;;;;;;;5.85;76.47;100031.27;1482535;88;22309;-79
2022/02/21 00:54:50;;;;;;;15.50;11.87;;;;;;;5.82;76.60;100030.70;1489053;88;22152;-80
2022/02/21 00:57:16;;;;;;;16.13;13.20;;;;;;;5.82;76.60;100030.70;1482346;88;22269;-77
2022/02/21 00:59:43;;;;;;;15.23;11.27;;;;;;;5.81;76.66;100032.49;1485044;88;22118;-80
2022/02/21 01:02:10;;;;;;;19.30;11.33;;;;;;;5.79;77.23;100028.32;1460790;88;22108;-80
2022/02/21 01:04:36;;;;;;;17.23;12.03;;;;;;;5.80;76.87;100015.53;1485471;88;22108;-79
2022/02/21 01:07:02;;;;;;;14.67;12.63;;;;;;;5.80;76.80;100016.84;1481072;87;22106;-79
2022/02/21 01:09:28;;;;;;;15.23;11.50;;;;;;;5.78;77.65;100006.48;1471089;87;22260;-80
2022/02/21 01:11:54;;;;;;;16.97;12.23;;;;;;;5.75;78.26;99997.52;1469080;89;22335;-80
2022/02/21 01:14:21;;;;;;;15.20;11.80;;;;;;;5.76;78.75;100000.52;1464622;89;23615;-80
2022/02/21 01:16:47;;;;;;;16.60;11.47;;;;;;;5.75;79.29;99993.58;1464076;89;22312;-80
2022/02/21 01:19:13;;;;;;;14.73;11.83;;;;;;;5.74;79.22;99980.59;1464733;89;22209;-79
2022/02/21 01:21:39;;;;;;;14.63;12.03;;;;;;;5.73;79.06;99977.63;1465758;89;22256;-79
2022/02/21 01:24:06;;;;;;;14.03;11.97;;;;;;;5.69;80.16;99965.70;1462783;88;22234;-79
2022/02/21 01:26:32;;;;;;;15.00;12.03;;;;;;;5.70;79.59;99947.66;1450593;89;22327;-79
2022/02/21 01:28:58;;;;;;;15.23;11.90;;;;;;;5.69;79.94;99944.20;1461154;88;22105;-79
2022/02/21 01:31:24;;;;;;;20.20;13.57;;;;;;;5.70;79.90;99952.45;1466088;89;22128;-79
2022/02/21 01:33:51;;;;;;;16.20;13.23;;;;;;;5.67;79.71;99943.52;1455987;88;23165;-79
2022/02/21 01:36:20;;;;;;;16.10;11.60;;;;;;;5.63;80.56;99947.34;1466412;88;21435;-79
2022/02/21 01:38:46;;;;;;;14.30;11.83;;;;;;;5.64;80.19;99946.41;1464909;89;23229;-79
2022/02/21 01:41:12;;;;;;;15.70;12.27;;;;;;;5.63;80.64;99938.16;1474767;88;22142;-78
2022/02/21 01:43:39;;;;;;;15.30;13.03;;;;;;;5.61;80.87;99937.44;1467100;89;22143;-79
2022/02/21 01:46:06;;;;;;;16.67;13.60;;;;;;;5.58;81.28;99931.14;1459130;89;22134;-79
2022/02/21 01:48:32;;;;;;;17.10;12.77;;;;;;;5.56;80.57;99920.78;1481800;88;22273;-79
2022/02/21 01:50:58;;;;;;;17.67;13.70;;;;;;;5.49;81.42;99904.34;1477156;88;22074;-79
2022/02/21 01:53:24;;;;;;;15.67;12.80;;;;;;;5.49;81.42;99904.34;1481163;88;22615;-79
2022/02/21 01:55:52;;;;;;;17.73;13.57;;;;;;;5.46;81.06;99903.29;1483152;88;21366;-78
2022/02/21 01:58:19;;;;;;;18.13;13.40;;;;;;;5.40;81.22;99902.84;1483700;88;22119;-78
2022/02/21 02:00:45;;;;;;;17.23;13.37;;;;;;;5.37;80.62;99907.03;1477771;88;22133;-78
2022/02/21 02:03:11;;;;;;;20.00;13.77;;;;;;;5.34;81.12;99906.45;1486728;88;22218;-79
2022/02/21 02:05:37;;;;;;;17.43;13.67;;;;;;;5.30;81.53;99904.57;1475417;88;22053;-79
2022/02/21 02:08:04;;;;;;;20.13;14.50;;;;;;;5.26;81.69;99899.20;1483313;88;22096;-79
2022/02/21 02:10:31;;;;;;;18.03;14.43;;;;;;;5.23;81.56;99890.28;1477449;88;23132;-79
2022/02/21 02:12:57;;;;;;;19.27;15.23;;;;;;;5.20;81.88;99898.40;1479388;88;22119;-79
2022/02/21 02:15:24;;;;;;;19.40;14.03;;;;;;;5.18;82.16;99896.41;1485314;88;23184;-79
2022/02/21 02:17:50;;;;;;;17.50;13.33;;;;;;;5.17;81.38;99894.23;1482240;88;23050;-79
2022/02/21 02:20:18;;;;;;;15.37;12.60;;;;;;;5.19;81.47;99887.56;1480082;88;22119;-80
2022/02/21 02:22:46;;;;;;;21.37;15.47;;;;;;;5.21;81.00;99880.41;1477315;88;23145;-79
2022/02/21 02:25:13;;;;;;;18.40;14.37;;;;;;;5.21;81.31;99871.23;1486358;88;24240;-79
2022/02/21 02:27:40;;;;;;;19.97;15.13;;;;;;;5.22;80.90;99868.12;1479099;88;22082;-80
2022/02/21 02:30:07;;;;;;;21.10;15.07;;;;;;;5.21;81.13;99864.67;1476646;88;22134;-79
2022/02/21 02:32:34;;;;;;;17.57;13.37;;;;;;;5.21;80.51;99863.36;1483705;88;23087;-79
2022/02/21 02:35:00;;;;;;;16.87;13.27;;;;;;;5.22;81.36;99855.83;1480030;88;22125;-79
2022/02/21 02:37:26;;;;;;;19.63;13.83;;;;;;;5.23;81.17;99848.30;1482827;88;22125;-79
2022/02/21 02:39:54;;;;;;;19.57;14.33;;;;;;;5.24;81.63;99857.03;1488710;88;22133;-79
2022/02/21 02:42:21;;;;;;;18.77;13.43;;;;;;;5.23;81.71;99850.92;1483242;87;22199;-79
2022/02/21 02:44:47;;;;;;;19.30;13.60;;;;;;;5.16;81.59;99813.05;1478047;87;22142;-79
2022/02/21 02:47:14;;;;;;;15.17;12.00;;;;;;;5.22;81.31;99820.41;1479788;87;22082;-79
2022/02/21 02:49:42;;;;;;;13.97;11.13;;;;;;;5.22;81.39;99803.36;1481222;87;24171;-79
2022/02/21 02:52:10;;;;;;;19.33;11.27;;;;;;;5.23;81.93;99802.38;1483322;87;23179;-79
2022/02/21 02:54:36;;;;;;;15.63;11.90;;;;;;;5.24;81.44;99798.82;1486642;87;22229;-79
2022/02/21 02:57:03;;;;;;;14.53;12.07;;;;;;;5.23;81.48;99803.70;1486839;87;22101;-79
2022/02/21 02:59:29;;;;;;;15.20;11.77;;;;;;;5.19;82.20;99794.44;1488352;87;23057;-79
2022/02/21 03:01:55;;;;;;;16.93;12.30;;;;;;;5.18;82.25;99783.11;1485970;87;22153;-79
2022/02/21 03:04:22;;;;;;;18.43;13.40;;;;;;;5.18;82.39;99784.20;1484245;87;23137;-80
2022/02/21 03:06:48;;;;;;;17.67;13.23;;;;;;;5.16;82.62;99784.20;1484296;87;22132;-79
2022/02/21 03:09:15;;;;;;;18.00;13.90;;;;;;;5.13;83.04;99787.08;1477412;87;23021;-79
2022/02/21 03:11:41;;;;;;;17.93;13.47;;;;;;;5.11;83.21;99785.06;1462774;87;22119;-79
2022/02/21 03:14:07;;;;;;;23.93;14.30;;;;;;;5.06;83.80;99788.05;1480677;87;22060;-79
2022/02/21 03:16:33;;;;;;;15.50;12.30;;;;;;;5.07;83.82;99797.60;1486156;87;23058;-79
2022/02/21 03:18:59;;;;;;;19.30;15.27;;;;;;;5.04;84.38;99815.39;1483575;87;22525;-79
2022/02/21 03:21:25;;;;;;;28.17;16.17;;;;;;;5.04;84.27;99821.95;1489411;87;24073;-78
2022/02/21 03:23:51;;;;;;;17.67;13.87;;;;;;;5.01;84.91;99830.08;1491567;87;22162;-79
2022/02/21 03:26:18;;;;;;;20.87;14.47;;;;;;;4.95;85.67;99826.98;1494172;87;22104;-79
2022/02/21 03:28:44;;;;;;;17.77;13.83;;;;;;;4.96;85.09;99825.20;1485273;87;22119;-79
2022/02/21 03:31:11;;;;;;;19.73;16.03;;;;;;;4.96;84.68;99808.52;1481577;87;22673;-79
2022/02/21 03:33:38;;;;;;;23.00;17.17;;;;;;;4.91;84.75;99808.52;1479009;87;23066;-79
2022/02/21 03:36:04;;;;;;;18.60;15.03;;;;;;;4.91;84.45;99815.07;1482355;87;22098;-80
2022/02/21 03:38:30;;;;;;;17.70;13.33;;;;;;;4.84;85.21;99804.75;1480819;87;22104;-79
2022/02/21 03:40:56;;;;;;;19.10;14.87;;;;;;;4.84;85.21;99804.75;1482543;87;22133;-79
2022/02/21 03:43:22;;;;;;;19.80;16.40;;;;;;;4.84;85.53;99802.13;1481501;87;21441;-79
2022/02/21 03:45:48;;;;;;;22.37;16.70;;;;;;;4.83;84.62;99813.55;1485614;88;21441;-79
2022/02/21 03:48:16;;;;;;;20.03;14.43;;;;;;;4.74;85.55;99798.58;1476141;88;23242;-79
2022/02/21 03:50:43;;;;;;;20.87;14.60;;;;;;;4.79;84.85;99789.87;1484947;87;22127;-82
2022/02/21 03:53:10;;;;;;;22.60;15.80;;;;;;;4.74;84.79;99772.37;1477156;87;22079;-84
2022/02/21 03:55:36;;;;;;;23.33;17.67;;;;;;;4.74;84.79;99772.37;1491911;87;23217;-85
2022/02/21 03:58:02;;;;;;;24.27;18.20;;;;;;;4.74;85.31;99778.92;1480321;87;22235;-85
2022/02/21 04:00:28;;;;;;;24.43;17.83;;;;;;;4.64;85.41;99759.68;1461453;87;22309;-84
2022/02/21 04:02:54;;;;;;;23.80;16.20;;;;;;;4.63;85.46;99758.00;1491492;87;22263;-86
2022/02/21 04:05:20;;;;;;;24.87;19.80;;;;;;;4.65;85.50;99762.16;1483756;87;22095;-85
2022/02/21 04:07:47;;;;;;;27.03;19.53;;;;;;;4.57;85.14;99745.40;1490961;87;21411;-85
2022/02/21 04:10:18;;;;;;;27.13;20.07;;;;;;;4.57;85.14;99754.69;1483953;87;23153;-85
2022/02/21 04:12:44;;;;;;;23.18;18.37;;;;;;;4.61;85.43;99754.69;1491803;87;22155;-85
2022/02/21 04:15:11;;;;;;;23.83;18.60;;;;;;;4.58;85.24;99736.11;1486090;87;21470;-87
2022/02/21 04:17:47;;;;;;;25.67;19.97;;;;;;;4.55;85.55;99736.85;1481325;87;22072;-85
2022/02/21 04:20:17;;;;;;;30.50;21.43;;;;;;;4.47;85.56;99725.19;1459754;89;22925;-86
2022/02/21 04:22:44;;;;;;;26.90;20.57;;;;;;;4.48;85.63;99733.39;1489023;87;22113;-86
2022/02/21 04:25:12;;;;;;;25.53;19.00;;;;;;;4.45;85.65;99710.06;1494300;87;23101;-87
2022/02/21 04:27:50;;;;;;;25.00;19.57;;;;;;;4.46;85.85;99706.96;1467760;89;23051;-86
2022/02/21 04:30:20;;;;;;;30.40;22.67;;;;;;;4.46;85.85;99706.96;1465667;89;22117;-85
2022/02/21 04:32:47;;;;;;;28.73;21.30;;;;;;;4.43;86.07;99725.55;1446176;89;21833;-87
2022/02/21 04:35:17;;;;;;;39.77;21.27;;;;;;;4.38;86.20;99693.20;1491034;87;22119;-85
2022/02/21 04:37:43;;;;;;;25.50;18.93;;;;;;;4.38;86.20;99693.20;1458111;87;21882;-85
2022/02/21 04:40:14;;;;;;;31.60;22.77;;;;;;;4.41;86.10;99700.81;1474284;87;21998;-85
2022/02/21 04:42:40;;;;;;;28.38;21.48;;;;;;;4.41;86.10;99700.81;1478976;87;21827;-84
2022/02/21 04:45:07;;;;;;;27.77;20.00;;;;;;;4.41;86.25;99697.36;1466916;88;21967;-85
2022/02/21 04:47:35;;;;;;;27.07;20.73;;;;;;;4.39;86.31;99689.61;1479843;87;22970;-85
2022/02/21 04:50:04;;;;;;;29.47;23.17;;;;;;;4.39;86.63;99700.09;1481165;87;21797;-86
2022/02/21 04:52:31;;;;;;;31.83;21.57;;;;;;;4.38;86.44;99702.38;1470939;89;22127;-88
2022/02/21 04:54:57;;;;;;;28.73;21.80;;;;;;;4.37;86.74;99686.28;1482865;87;21987;-87
2022/02/21 04:57:23;;;;;;;26.70;19.73;;;;;;;4.37;86.75;99688.90;1490501;87;22954;-87
2022/02/21 04:59:49;;;;;;;29.67;22.13;;;;;;;4.37;86.75;99688.90;1495874;87;21881;-83
2022/02/21 05:02:15;;;;;;;27.93;19.20;;;;;;;4.36;86.47;99687.73;1482501;87;21817;-83
2022/02/21 05:04:41;;;;;;;29.60;23.67;;;;;;;4.35;86.81;99685.59;1486261;87;21398;-85
2022/02/21 05:07:08;;;;;;;30.13;22.73;;;;;;;4.34;86.88;99679.16;1490840;87;21350;-83
2022/02/21 05:09:34;;;;;;;31.30;22.57;;;;;;;4.34;86.88;99679.16;1492770;87;23110;-83
2022/02/21 05:12:01;;;;;;;33.00;23.30;;;;;;;4.27;87.28;99665.73;1473646;87;22083;-83
2022/02/21 05:14:27;;;;;;;32.13;24.07;;;;;;;4.30;87.39;99661.08;1481602;87;21368;-85
2022/02/21 05:16:53;;;;;;;34.30;24.73;;;;;;;4.24;88.28;99662.06;1471347;88;21839;-87
2022/02/21 05:19:19;;;;;;;30.50;22.40;;;;;;;4.26;88.47;99671.95;1479535;87;21952;-88
2022/02/21 05:21:45;;;;;;;33.17;21.57;;;;;;;4.26;88.47;99671.95;1481769;87;21838;-87
2022/02/21 05:24:11;;;;;;;33.13;24.73;;;;;;;4.29;87.89;99669.08;1488697;87;22093;-87
2022/02/21 05:26:37;;;;;;;35.13;25.10;;;;;;;4.27;88.42;99670.98;1486748;87;22891;-87
2022/02/21 05:29:04;;;;;;;34.10;25.23;;;;;;;4.27;88.42;99678.84;1488053;87;21913;-88
2022/02/21 05:31:30;;;;;;;33.87;23.87;;;;;;;4.20;89.17;99686.83;1484924;87;21396;-86
2022/02/21 05:33:56;;;;;;;35.60;23.67;;;;;;;4.24;88.96;99690.39;1486852;87;21828;-87
2022/02/21 05:36:22;;;;;;;33.57;24.70;;;;;;;4.24;88.96;99690.39;1478136;87;21867;-86
2022/02/21 05:38:48;;;;;;;36.80;26.47;;;;;;;4.24;88.53;99677.78;1483593;87;21848;-87
2022/02/21 05:41:14;;;;;;;35.93;27.00;;;;;;;4.22;88.93;99687.55;1463359;87;21338;-88
2022/02/21 05:43:40;;;;;;;36.37;25.10;;;;;;;4.23;88.96;99686.58;1463852;88;21830;-89
2022/02/21 05:46:07;;;;;;;32.40;21.97;;;;;;;4.22;89.34;99683.61;1467547;89;21920;-85
2022/02/21 05:48:33;;;;;;;35.93;23.80;;;;;;;4.23;89.69;99693.12;1460297;89;22183;-85
2022/02/21 05:50:59;;;;;;;37.37;27.13;;;;;;;4.22;89.49;99690.16;1460911;89;21894;-86
2022/02/21 05:53:25;;;;;;;39.27;26.30;;;;;;;4.22;89.49;99690.16;1488151;87;22810;-87
2022/02/21 05:55:51;;;;;;;36.53;25.20;;;;;;;4.30;88.73;99704.78;1468044;87;22144;-88
2022/02/21 05:58:18;;;;;;;39.23;26.47;;;;;;;4.32;89.35;99708.11;1471785;87;23026;-87
2022/02/21 06:00:46;;;;;;;37.03;27.33;;;;;;;4.32;89.23;99696.33;1464239;89;22064;-85
2022/02/21 06:03:12;;;;;;;35.13;23.57;;;;;;;4.40;89.05;99716.64;1464883;89;22270;-85
2022/02/21 06:05:39;;;;;;;42.63;28.20;;;;;;;4.40;89.05;99716.64;1457013;89;22757;-85
2022/02/21 06:08:05;;;;;;;34.90;24.47;;;;;;;4.44;88.68;99712.34;1463924;89;22784;-89
2022/02/21 06:10:31;;;;;;;37.87;26.10;;;;;;;4.50;87.95;99702.66;1457882;89;21877;-87
2022/02/21 06:12:57;;;;;;;41.67;28.20;;;;;;;4.57;87.92;99705.60;1469883;89;21876;-87
2022/02/21 06:15:23;;;;;;;34.17;23.63;;;;;;;4.60;87.78;99703.20;1463882;89;23207;-85
2022/02/21 06:17:51;;;;;;;34.90;24.63;;;;;;;4.61;87.91;99700.48;1458666;89;21442;-86
2022/02/21 06:20:17;;;;;;;41.33;26.97;;;;;;;4.61;87.91;99700.48;1462207;89;22154;-85
2022/02/21 06:22:43;;;;;;;37.87;25.33;;;;;;;4.70;87.78;99708.88;1461616;89;22917;-85
2022/02/21 06:25:09;;;;;;;39.57;27.23;;;;;;;4.74;87.30;99705.52;1463997;87;22087;-85
2022/02/21 06:27:36;;;;;;;42.07;28.50;;;;;;;4.71;87.56;99705.29;1448018;89;22136;-84
2022/02/21 06:30:03;;;;;;;46.90;29.77;;;;;;;4.68;87.56;99686.38;1457990;89;22226;-83
2022/02/21 06:32:29;;;;;;;39.50;26.47;;;;;;;4.68;87.51;99698.17;1461491;89;22082;-84
2022/02/21 06:34:55;;;;;;;44.23;26.37;;;;;;;4.69;87.34;99701.13;1465928;89;22054;-83
2022/02/21 06:37:21;;;;;;;36.20;27.10;;;;;;;4.68;87.26;99703.41;1463420;89;22181;-83
2022/02/21 06:39:48;;;;;;;41.83;23.17;;;;;;;4.68;87.16;99688.51;1465504;89;22166;-83
2022/02/21 06:42:14;;;;;;;46.27;31.47;;;;;;;4.67;86.89;99684.72;1458106;89;21390;-83
2022/02/21 06:44:40;;;;;;;49.70;31.20;;;;;;;4.63;87.36;99671.50;1464169;88;22200;-84
2022/02/21 06:47:06;;;;;;;40.50;27.83;;;;;;;4.57;87.75;99668.09;1453774;87;22058;-85
2022/02/21 06:49:33;;;;;;;46.63;30.23;;;;;;;4.52;87.88;99663.25;1484174;87;21359;-83
2022/02/21 06:51:59;;;;;;;44.60;30.03;;;;;;;4.47;87.88;99649.20;1488004;87;23043;-83
2022/02/21 06:54:26;;;;;;;51.20;30.00;;;;;;;4.47;87.88;99649.20;1494305;87;22183;-83
2022/02/21 06:56:52;;;;;;;48.80;30.90;;;;;;;4.46;88.40;99637.52;1489090;87;22109;-82
2022/02/21 06:59:18;;;;;;;41.40;28.13;;;;;;;4.43;88.64;99636.02;1496042;87;22115;-86
2022/02/21 07:01:44;;;;;;;45.90;29.77;;;;;;;4.46;88.45;99632.28;1490272;87;22176;-86
2022/02/21 07:04:11;;;;;;;46.70;30.63;;;;;;;4.45;88.42;99617.05;1494493;87;23025;-85
2022/02/21 07:06:37;;;;;;;47.57;30.37;;;;;;;4.45;88.24;99606.56;1488518;87;22446;-85
2022/02/21 07:09:03;;;;;;;43.50;28.37;;;;;;;4.45;88.24;99606.56;1493349;87;21911;-84
2022/02/21 07:11:30;;;;;;;44.73;29.90;;;;;;;4.44;88.12;99601.47;1496219;87;23008;-85
2022/02/21 07:13:57;;;;;;;40.97;26.67;;;;;;;4.51;87.67;99594.74;1491145;87;22107;-85
2022/02/21 07:16:23;;;;;;;52.30;32.10;;;;;;;4.51;87.67;99594.74;1492253;87;21989;-85
2022/02/21 07:18:49;;;;;;;42.77;29.17;;;;;;;4.51;87.84;99591.63;1484991;87;22024;-85
2022/02/21 07:21:15;;;;;;;41.97;27.57;;;;;;;4.53;87.49;99581.04;1493753;87;22981;-86
2022/02/21 07:23:41;;;;;;;42.07;28.07;;;;;;;4.58;87.33;99578.04;1489378;87;22041;-85
2022/02/21 07:26:07;;;;;;;43.70;30.37;;;;;;;4.63;86.89;99554.88;1482619;88;23176;-85
2022/02/21 07:28:33;;;;;;;44.03;30.50;;;;;;;4.63;86.89;99554.88;1470729;88;22253;-85
2022/02/21 07:31:00;;;;;;;39.30;26.93;;;;;;;4.66;86.57;99558.53;1473699;88;22148;-85
2022/02/21 07:33:26;;;;;;;39.33;27.53;;;;;;;4.70;86.47;99549.47;1473803;88;22107;-85
2022/02/21 07:35:52;;;;;;;45.93;30.80;;;;;;;4.73;86.16;99550.52;1466299;88;22064;-85
2022/02/21 07:38:18;;;;;;;40.93;28.43;;;;;;;4.74;86.11;99540.36;1471258;88;22104;-85
2022/02/21 07:40:44;;;;;;;41.37;28.43;;;;;;;4.75;85.81;99538.94;1467735;88;22047;-85
2022/02/21 07:43:11;;;;;;;40.37;27.27;;;;;;;4.79;85.82;99523.77;1474400;88;22051;-85
2022/02/21 07:45:37;;;;;;;43.33;27.77;;;;;;;4.80;85.69;99512.31;1474583;88;22151;-85
2022/02/21 07:48:04;;;;;;;42.47;28.23;;;;;;;4.83;85.52;99513.34;1493047;87;22028;-84
2022/02/21 07:50:31;;;;;;;41.33;28.20;;;;;;;4.86;85.24;99508.33;1478557;88;22325;-85
2022/02/21 07:52:58;;;;;;;40.97;27.63;;;;;;;4.87;85.10;99505.59;1462584;88;22164;-84
2022/02/21 07:55:24;;;;;;;39.30;27.23;;;;;;;4.90;84.76;99496.14;1471744;88;23339;-86
2022/02/21 07:57:51;;;;;;;41.23;24.30;;;;;;;4.91;84.46;99487.30;1495978;87;22025;-85
2022/02/21 08:00:18;;;;;;;39.13;26.47;;;;;;;4.95;84.26;99487.39;1447816;88;23047;-84
2022/02/21 08:02:44;;;;;;;42.53;26.00;;;;;;;4.98;83.99;99487.12;1445733;90;22007;-85
2022/02/21 08:05:11;;;;;;;40.97;25.90;;;;;;;5.07;83.84;99484.66;1485786;87;22104;-84
2022/02/21 08:07:38;;;;;;;36.60;24.93;;;;;;;5.17;82.74;99460.56;1479492;88;22178;-87
2022/02/21 08:10:05;;;;;;;34.07;23.50;;;;;;;5.17;82.74;99435.65;1480681;88;21360;-85
2022/02/21 08:12:32;;;;;;;33.63;22.30;;;;;;;5.23;82.45;99445.59;1481390;88;21426;-87
2022/02/21 08:14:58;;;;;;;33.13;23.50;;;;;;;5.34;81.90;99445.45;1482264;88;23454;-85
2022/02/21 08:17:29;;;;;;;34.53;23.00;;;;;;;5.42;81.72;99400.98;1481536;88;22110;-86
2022/02/21 08:19:54;;;;;;;32.90;23.87;;;;;;;5.49;81.24;99410.92;1478797;88;21514;-86
2022/02/21 08:22:20;;;;;;;31.47;22.87;;;;;;;5.49;81.10;99408.30;1478133;88;22520;-86
2022/02/21 08:24:47;;;;;;;35.20;21.67;;;;;;;5.51;81.16;99391.94;1477291;87;21538;-85
2022/02/21 08:27:14;;;;;;;33.83;22.53;;;;;;;5.53;81.09;99404.45;1480766;88;22395;-86
2022/02/21 08:29:40;;;;;;;36.07;24.90;;;;;;;5.51;80.96;99394.56;1491110;88;21433;-85
2022/02/21 08:32:07;;;;;;;32.30;20.23;;;;;;;5.51;80.96;99394.56;1485448;88;22284;-85
2022/02/21 08:34:33;;;;;;;29.43;19.20;;;;;;;5.58;80.91;99412.70;1481535;87;22200;-86
2022/02/21 08:36:59;;;;;;;31.30;21.87;;;;;;;5.54;80.82;99408.72;1480343;87;21382;-85
2022/02/21 08:39:25;;;;;;;33.43;22.33;;;;;;;5.64;80.85;99410.86;1480551;88;22167;-86
2022/02/21 08:41:51;;;;;;;39.87;23.10;;;;;;;5.71;80.31;99398.80;1483233;87;22284;-85
2022/02/21 08:44:18;;;;;;;30.37;21.07;;;;;;;5.77;80.41;99407.91;1482981;88;21308;-85
2022/02/21 08:46:44;;;;;;;34.03;23.90;;;;;;;5.85;79.87;99408.86;1482023;87;22269;-86
2022/02/21 08:49:11;;;;;;;35.53;23.70;;;;;;;5.89;79.78;99409.40;1483067;88;21419;-85
2022/02/21 08:51:37;;;;;;;32.00;22.60;;;;;;;5.92;79.62;99410.42;1477428;87;22496;-87
2022/02/21 08:54:03;;;;;;;34.50;23.10;;;;;;;5.97;79.54;99410.04;1487954;88;21382;-86
2022/02/21 08:56:29;;;;;;;30.70;20.33;;;;;;;5.94;79.15;99412.95;1485356;87;21489;-86
2022/02/21 08:58:55;;;;;;;34.53;21.10;;;;;;;5.89;79.29;99391.84;1473796;87;21337;-86
2022/02/21 09:01:21;;;;;;;33.00;22.00;;;;;;;5.91;79.20;99383.01;1479860;88;21522;-86
2022/02/21 09:03:48;;;;;;;35.27;21.70;;;;;;;5.99;79.30;99381.35;1477318;88;23359;-86
2022/02/21 09:06:16;;;;;;;35.00;24.53;;;;;;;6.03;78.88;99372.69;1474256;88;22426;-86
2022/02/21 09:08:42;;;;;;;31.23;21.43;;;;;;;6.07;78.46;99370.95;1477952;87;21545;-87
2022/02/21 09:11:08;;;;;;;34.27;23.00;;;;;;;6.13;78.11;99353.80;1475427;88;21516;-87
2022/02/21 09:13:35;;;;;;;27.77;20.40;;;;;;;6.19;77.62;99353.70;1476963;88;21471;-86
2022/02/21 09:16:01;;;;;;;32.20;19.57;;;;;;;6.25;77.02;99359.19;1475418;88;22409;-85
2022/02/21 09:18:27;;;;;;;28.87;19.33;;;;;;;6.35;76.75;99347.80;1477222;88;21536;-85
2022/02/21 09:20:53;;;;;;;25.47;16.40;;;;;;;6.43;76.07;99350.02;1478600;88;21596;-86
2022/02/21 09:23:20;;;;;;;26.50;17.27;;;;;;;6.52;75.66;99350.94;1479912;88;21493;-85
2022/02/21 09:25:46;;;;;;;26.70;18.53;;;;;;;6.59;75.32;99349.39;1479229;88;21619;-86
2022/02/21 09:28:13;;;;;;;29.27;18.83;;;;;;;6.68;74.82;99341.92;1470445;88;21573;-85
2022/02/21 09:30:39;;;;;;;29.23;16.77;;;;;;;6.75;73.93;99341.64;1480817;87;21522;-86
2022/02/21 09:33:05;;;;;;;27.63;19.03;;;;;;;6.82;73.33;99346.30;1476258;87;21449;-86
2022/02/21 09:35:32;;;;;;;28.80;18.90;;;;;;;6.88;73.21;99361.52;1480754;88;21426;-86
2022/02/21 09:37:58;;;;;;;31.50;19.83;;;;;;;6.91;72.84;99341.48;1475373;88;21360;-86
2022/02/21 09:40:25;;;;;;;26.20;17.80;;;;;;;6.95;72.94;99347.59;1479208;88;21464;-86
2022/02/21 09:42:51;;;;;;;27.27;18.07;;;;;;;7.01;72.53;99350.11;1479323;87;21491;-85
2022/02/21 09:45:20;;;;;;;20.27;16.30;;;;;;;7.08;72.27;99346.37;1483218;88;21413;-86
2022/02/21 09:47:51;;;;;;;25.83;13.33;;;;;;;7.16;72.04;99343.35;1459579;88;21346;-86
2022/02/21 09:50:17;;;;;;;22.13;17.05;;;;;;;7.22;71.60;99355.05;1463466;88;22248;-86
2022/02/21 09:52:46;;;;;;;23.03;15.70;;;;;;;7.26;70.80;99347.20;1469279;89;21494;-87
2022/02/21 09:55:12;;;;;;;30.53;16.30;;;;;;;7.28;70.46;99345.25;1467277;89;21288;-86
2022/02/21 09:57:38;;;;;;;22.30;14.17;;;;;;;7.29;70.66;99352.16;1470708;89;22285;-86
2022/02/21 10:00:08;;;;;;;21.30;14.13;;;;;;;7.35;70.34;99342.83;1462216;89;21390;-85
2022/02/21 10:02:35;;;;;;;23.47;14.77;;;;;;;7.41;70.28;99351.42;1464277;89;21502;-85
2022/02/21 10:05:21;;;;;;;23.10;14.47;;;;;;;7.45;70.24;99360.65;1468630;89;21398;-85
2022/02/21 10:07:47;;;;;;;19.43;12.27;;;;;;;7.55;70.25;99360.08;1465715;88;21553;-85
2022/02/21 10:10:18;;;;;;;21.87;15.33;;;;;;;7.64;70.05;99353.87;1469432;88;21465;-85
2022/02/21 10:12:53;;;;;;;24.92;16.87;;;;;;;7.69;69.68;99342.89;1480270;88;21505;-84
2022/02/21 10:15:26;;;;;;;20.20;14.50;;;;;;;7.69;69.32;99333.18;1474146;88;21449;-82
2022/02/21 10:18:15;;;;;;;27.13;14.00;;;;;;;7.79;69.25;99334.88;1477396;88;21545;-81
2022/02/21 10:20:58;;;;;;;21.50;13.10;;;;;;;7.85;68.93;99331.61;1468519;88;21406;-82
2022/02/21 10:23:30;;;;;;;21.17;13.57;;;;;;;7.89;68.72;99332.96;1460677;88;21361;-84
2022/02/21 10:25:59;;;;;;;23.70;14.17;;;;;;;7.98;68.29;99318.02;1468055;88;21539;-82
2022/02/21 10:28:38;;;;;;;23.23;13.63;;;;;;;8.03;68.28;99328.42;1467639;88;21449;-92
2022/02/21 10:31:14;;;;;;;17.27;11.73;;;;;;;8.07;67.87;99322.33;1461624;88;21501;-91
2022/02/21 10:33:51;;;;;;;19.50;13.90;;;;;;;8.17;68.14;99315.61;1480711;87;22292;-91
2022/02/21 10:36:37;;;;;;;22.13;13.10;;;;;;;8.30;68.53;99309.41;1460039;88;21404;-92
2022/02/21 10:39:15;;;;;;;17.43;11.27;;;;;;;8.50;67.99;99305.53;1487955;87;21419;-91
2022/02/21 10:41:48;;;;;;;24.47;14.37;;;;;;;8.66;66.71;99305.22;1465740;88;21404;-91
2022/02/21 10:44:25;;;;;;;17.17;12.73;;;;;;;8.73;66.47;99306.23;1458035;89;21464;-86
2022/02/21 10:47:14;;;;;;;21.97;12.97;;;;;;;8.67;65.42;99300.30;1458986;89;21455;-85
2022/02/21 10:50:03;;;;;;;17.03;12.17;;;;;;;8.70;65.41;99306.56;1459610;89;21450;-89
2022/02/21 10:52:35;;;;;;;17.70;12.03;;;;;;;8.68;65.27;99304.08;1477360;88;21471;-89
2022/02/21 10:55:05;;;;;;;16.27;12.90;;;;;;;8.64;65.29;99303.27;1456625;89;21376;-88
2022/02/21 10:57:39;;;;;;;19.23;13.08;;;;;;;8.62;65.78;99294.67;1466346;89;21280;-89
2022/02/21 11:00:06;;;;;;;22.87;14.60;;;;;;;8.61;66.06;99292.54;1465581;89;21510;-87
2022/02/21 11:02:33;;;;;;;21.17;13.43;;;;;;;8.62;66.00;99288.08;1466282;89;22424;-85
2022/02/21 11:05:01;;;;;;;17.97;11.70;;;;;;;8.62;66.15;99278.85;1460995;89;21505;-85
2022/02/21 11:07:28;;;;;;;15.50;9.87;;;;;;;8.65;66.50;99273.25;1459812;89;21531;-86
2022/02/21 11:10:01;;;;;;;17.13;12.13;;;;;;;8.70;66.32;99274.91;1457893;89;21435;-86
2022/02/21 11:12:32;;;;;;;18.83;12.43;;;;;;;8.78;66.08;99268.33;1471203;89;21501;-86
2022/02/21 11:15:00;;;;;;;17.25;12.00;;;;;;;8.85;65.67;99264.02;1466895;89;21434;-86
2022/02/21 11:17:27;;;;;;;15.57;11.60;;;;;;;8.94;65.60;99260.39;1470004;88;22682;-86
2022/02/21 11:19:53;;;;;;;17.43;11.97;;;;;;;8.99;65.35;99258.09;1472867;87;21427;-87
2022/02/21 11:22:21;;;;;;;14.53;11.07;;;;;;;9.03;65.01;99250.66;1464771;87;21317;-86
2022/02/21 11:24:57;;;;;;;17.30;11.20;;;;;;;9.10;65.17;99256.11;1477939;88;21463;-88